Time;durP1;ratioP1;P1;durP2;ratioP2;P2;SDS_P1;SDS_P2;PMS_P1;PMS_P2;Temp;Humidity;BMP_temperature;BMP_pressure;BME280_temperature;BME280_humidity;BME280_pressure;Samples;Min_cycle;Max_cycle;Signal;HPM_P1;HPM_P2
2023/04/08 00:00:48;;;;;;;5.57;5.07;;;10.20;99.90;;;;;;4998339;28;20707;-89
2023/04/08 00:03:14;;;;;;;5.73;5.23;;;10.10;99.90;;;;;;4997284;28;20729;-90
2023/04/08 00:05:43;;;;;;;5.50;5.00;;;10.00;99.90;;;;;;4998423;28;20220;-89
2023/04/08 00:08:08;;;;;;;6.03;5.43;;;10.10;99.90;;;;;;4997625;28;20176;-89
2023/04/08 00:10:34;;;;;;;5.30;4.90;;;10.20;99.90;;;;;;4999008;28;20777;-87
2023/04/08 00:13:00;;;;;;;5.33;4.83;;;10.20;99.90;;;;;;4998934;28;20188;-91
2023/04/08 00:15:26;;;;;;;6.23;5.63;;;10.10;99.90;;;;;;5004462;28;20241;-90
2023/04/08 00:17:53;;;;;;;5.70;5.20;;;10.00;99.90;;;;;;5017512;28;20232;-91
2023/04/08 00:20:20;;;;;;;5.60;5.20;;;10.00;99.90;;;;;;4999376;28;20181;-90
2023/04/08 00:22:45;;;;;;;6.00;5.50;;;10.00;99.90;;;;;;5016803;28;20223;-89
2023/04/08 00:25:11;;;;;;;5.77;5.27;;;10.20;99.90;;;;;;5016533;28;20178;-89
2023/04/08 00:27:37;;;;;;;5.37;4.93;;;10.20;99.90;;;;;;5016209;28;20585;-90
2023/04/08 00:30:03;;;;;;;5.80;5.20;;;10.30;99.90;;;;;;4998473;28;20241;-89
2023/04/08 00:32:28;;;;;;;5.50;5.10;;;10.50;99.90;;;;;;5027505;28;20747;-90
2023/04/08 00:34:55;;;;;;;6.27;5.40;;;10.50;99.90;;;;;;4999983;28;20183;-89
2023/04/08 00:37:22;;;;;;;5.67;5.13;;;10.50;99.90;;;;;;5014858;28;20248;-90
2023/04/08 00:39:47;;;;;;;5.63;5.17;;;10.50;99.90;;;;;;5013950;28;20188;-89
2023/04/08 00:42:13;;;;;;;6.20;5.70;;;10.50;99.90;;;;;;5014809;28;20219;-90
2023/04/08 00:44:39;;;;;;;6.07;5.57;;;10.50;99.90;;;;;;5014852;28;20882;-91
2023/04/08 00:47:04;;;;;;;6.13;5.63;;;10.50;99.90;;;;;;5016488;28;20235;-90
2023/04/08 00:49:30;;;;;;;6.53;5.93;;;10.50;99.90;;;;;;5015917;28;20734;-88
2023/04/08 00:51:57;;;;;;;6.40;5.80;;;10.50;99.90;;;;;;5017930;28;20192;-90
2023/04/08 00:54:23;;;;;;;6.63;6.13;;;10.60;99.90;;;;;;5019469;28;20550;-91
2023/04/08 00:56:49;;;;;;;7.17;6.57;;;10.60;99.90;;;;;;5019626;28;20293;-89
2023/04/08 00:59:16;;;;;;;6.30;5.80;;;10.60;99.90;;;;;;5020241;28;20186;-92
2023/04/08 01:02:05;;;;;;;7.00;6.40;;;10.60;99.90;;;;;;5003494;28;20204;-89
2023/04/08 01:04:54;;;;;;;7.30;6.70;;;10.60;99.90;;;;;;5019525;28;20207;-90
2023/04/08 01:07:27;;;;;;;7.80;7.20;;;10.50;99.90;;;;;;5021260;28;20748;-88
2023/04/08 01:10:07;;;;;;;7.33;6.57;;;10.40;99.90;;;;;;5020414;28;20175;-89
2023/04/08 01:12:40;;;;;;;8.13;7.37;;;10.30;99.90;;;;;;5019720;28;20246;-90
2023/04/08 01:15:07;;;;;;;7.93;7.23;;;10.20;99.90;;;;;;5019283;28;20627;-89
2023/04/08 01:17:35;;;;;;;8.57;7.77;;;10.30;99.90;;;;;;5020477;28;20267;-90
2023/04/08 01:20:03;;;;;;;7.97;7.30;;;10.30;99.90;;;;;;5020998;28;20177;-89
2023/04/08 01:23:02;;;;;;;8.00;7.33;;;10.30;99.90;;;;;;5020338;28;20216;-89
2023/04/08 01:25:31;;;;;;;8.20;7.40;;;10.40;99.90;;;;;;5002451;28;20256;-89
2023/04/08 01:27:59;;;;;;;8.27;7.57;;;10.40;99.90;;;;;;5018339;28;20185;-92
2023/04/08 01:30:27;;;;;;;8.23;7.53;;;10.50;99.90;;;;;;5019535;28;20195;-89
2023/04/08 01:32:54;;;;;;;7.67;7.07;;;10.50;99.90;;;;;;5035618;28;20193;-90
2023/04/08 01:35:21;;;;;;;8.83;8.13;;;10.60;99.90;;;;;;5029597;28;20193;-89
2023/04/08 01:37:49;;;;;;;8.57;7.87;;;10.50;99.90;;;;;;5020075;28;20212;-90
2023/04/08 01:40:17;;;;;;;8.27;7.23;;;10.70;99.90;;;;;;5021305;28;20180;-89
2023/04/08 01:42:44;;;;;;;8.93;8.23;;;10.70;99.90;;;;;;5020546;28;20221;-89
2023/04/08 01:45:11;;;;;;;8.63;7.87;;;10.70;99.90;;;;;;5020493;28;20484;-89
2023/04/08 01:47:38;;;;;;;8.53;7.83;;;10.60;99.90;;;;;;5019578;28;20281;-90
2023/04/08 01:50:06;;;;;;;9.70;8.80;;;10.60;99.90;;;;;;5019715;28;20183;-90
2023/04/08 01:52:34;;;;;;;9.30;8.47;;;10.60;99.90;;;;;;5020204;28;20186;-89
2023/04/08 01:55:00;;;;;;;8.80;8.10;;;10.60;99.90;;;;;;5020217;28;20648;-90
2023/04/08 01:57:32;;;;;;;8.77;7.97;;;10.60;99.90;;;;;;5020104;28;20197;-90
2023/04/08 02:00:09;;;;;;;9.43;8.53;;;10.60;99.90;;;;;;5028681;28;20212;-91
2023/04/08 02:02:37;;;;;;;9.23;8.40;;;10.60;99.90;;;;;;5034161;28;20193;-90
2023/04/08 02:05:03;;;;;;;9.47;8.67;;;10.70;99.90;;;;;;5030023;28;20181;-88
2023/04/08 02:07:28;;;;;;;10.10;9.30;;;10.70;99.90;;;;;;5033904;28;20247;-90
2023/04/08 02:09:55;;;;;;;9.80;8.80;;;10.60;99.90;;;;;;5017177;28;20196;-89
2023/04/08 02:12:21;;;;;;;9.20;8.40;;;10.70;99.90;;;;;;5024550;28;20177;-89
2023/04/08 02:14:48;;;;;;;7.97;6.97;;;10.80;99.90;;;;;;5020298;28;20317;-88
2023/04/08 02:17:22;;;;;;;7.63;6.80;;;10.70;99.90;;;;;;5022774;28;20196;-90
2023/04/08 02:19:52;;;;;;;9.57;8.67;;;10.80;99.90;;;;;;5004332;28;20682;-90
2023/04/08 02:22:46;;;;;;;8.73;7.93;;;10.60;99.90;;;;;;5019819;28;20431;-91
2023/04/08 02:25:15;;;;;;;9.03;8.23;;;10.40;99.90;;;;;;5016883;28;20246;-90
2023/04/08 02:27:42;;;;;;;9.97;9.07;;;10.40;99.90;;;;;;5017326;28;20701;-89
2023/04/08 02:30:10;;;;;;;9.77;8.87;;;10.40;99.90;;;;;;5016974;28;20189;-90
2023/04/08 02:32:36;;;;;;;9.20;8.50;;;10.30;99.90;;;;;;5018971;28;20185;-89
2023/04/08 02:35:04;;;;;;;9.87;8.93;;;10.30;99.90;;;;;;5017291;28;20296;-90
2023/04/08 02:37:30;;;;;;;9.40;8.60;;;10.40;99.90;;;;;;5027095;28;20216;-91
2023/04/08 02:39:56;;;;;;;9.53;8.67;;;10.50;99.90;;;;;;5037888;28;20189;-91
2023/04/08 02:42:22;;;;;;;9.57;8.67;;;10.60;99.90;;;;;;5038080;28;20257;-91
2023/04/08 02:44:48;;;;;;;9.47;8.67;;;10.60;99.90;;;;;;5027421;28;20203;-90
2023/04/08 02:47:13;;;;;;;9.87;9.07;;;10.60;99.90;;;;;;5002409;28;20533;-89
2023/04/08 02:49:39;;;;;;;10.27;9.33;;;10.60;99.90;;;;;;5026325;28;20220;-89
2023/04/08 02:52:05;;;;;;;10.60;9.70;;;10.50;99.90;;;;;;5033243;28;20208;-89
2023/04/08 02:54:30;;;;;;;10.83;9.87;;;10.40;99.90;;;;;;5021428;28;20663;-90
2023/04/08 02:56:56;;;;;;;10.90;9.67;;;10.50;99.90;;;;;;5017906;28;20296;-90
2023/04/08 02:59:22;;;;;;;10.27;9.47;;;10.30;99.90;;;;;;5018396;28;20236;-90
2023/04/08 03:01:47;;;;;;;13.97;11.80;;;10.30;99.90;;;;;;5018030;28;20230;-90
2023/04/08 03:04:13;;;;;;;12.07;10.80;;;10.40;99.90;;;;;;5018206;28;20184;-89
2023/04/08 03:06:39;;;;;;;12.43;11.33;;;10.40;99.90;;;;;;5018332;28;20212;-92
2023/04/08 03:09:04;;;;;;;14.17;12.77;;;10.40;99.90;;;;;;5018509;28;20179;-89
2023/04/08 03:11:30;;;;;;;14.50;13.13;;;10.40;99.90;;;;;;5001638;28;20207;-89
2023/04/08 03:13:56;;;;;;;13.67;12.47;;;10.30;99.90;;;;;;5018713;28;20220;-90
2023/04/08 03:16:22;;;;;;;13.73;12.53;;;10.30;99.90;;;;;;5015893;28;20206;-91
2023/04/08 03:18:52;;;;;;;13.40;12.20;;;10.30;99.90;;;;;;5017573;28;20199;-90
2023/04/08 03:21:18;;;;;;;13.73;12.43;;;10.40;99.90;;;;;;5016247;28;20173;-90
2023/04/08 03:23:44;;;;;;;13.97;12.67;;;10.30;99.90;;;;;;5016126;28;20803;-91
2023/04/08 03:26:10;;;;;;;13.73;12.53;;;10.40;99.90;;;;;;5015462;28;20573;-91
2023/04/08 03:28:36;;;;;;;14.07;12.77;;;10.40;99.90;;;;;;5014551;28;20191;-91
2023/04/08 03:31:03;;;;;;;13.97;12.63;;;10.50;99.90;;;;;;5015808;28;20188;-91
2023/04/08 03:33:29;;;;;;;14.27;13.00;;;10.30;99.90;;;;;;5015337;28;20191;-90
2023/04/08 03:35:55;;;;;;;14.10;12.90;;;10.20;99.90;;;;;;5015151;28;20255;-90
2023/04/08 03:38:20;;;;;;;14.37;13.07;;;10.10;99.90;;;;;;5015269;28;20249;-91
2023/04/08 03:40:46;;;;;;;14.03;12.80;;;10.10;99.90;;;;;;5017701;28;20189;-89
2023/04/08 03:43:12;;;;;;;13.27;12.13;;;10.10;99.90;;;;;;5018291;28;20286;-89
2023/04/08 03:45:38;;;;;;;13.83;12.53;;;10.10;99.90;;;;;;5017448;28;20213;-89
2023/04/08 03:48:04;;;;;;;14.77;13.27;;;10.30;99.90;;;;;;5018565;28;20185;-90
2023/04/08 03:50:30;;;;;;;15.10;13.80;;;10.30;99.90;;;;;;5018562;28;20185;-90
2023/04/08 03:52:55;;;;;;;15.10;13.70;;;10.10;99.90;;;;;;5016594;28;20190;-90
2023/04/08 03:55:21;;;;;;;13.80;12.60;;;10.20;99.90;;;;;;5017239;28;20177;-90
2023/04/08 03:57:46;;;;;;;15.50;14.10;;;10.20;99.90;;;;;;5016774;28;20177;-90
2023/04/08 04:00:13;;;;;;;14.03;12.73;;;10.20;99.90;;;;;;5019168;28;20224;-90
2023/04/08 04:02:39;;;;;;;14.47;12.97;;;10.30;99.90;;;;;;4999448;28;20208;-90
2023/04/08 04:05:04;;;;;;;14.37;12.97;;;10.20;99.90;;;;;;5016548;28;20322;-90
2023/04/08 04:07:30;;;;;;;14.47;13.17;;;10.20;99.90;;;;;;5016400;28;20204;-89
2023/04/08 04:09:56;;;;;;;14.03;12.77;;;10.20;99.90;;;;;;5016144;28;20243;-91
2023/04/08 04:12:22;;;;;;;14.07;12.87;;;10.20;99.90;;;;;;5017143;28;20175;-89
2023/04/08 04:14:48;;;;;;;13.87;12.67;;;10.20;99.90;;;;;;5016392;28;20180;-90
2023/04/08 04:17:14;;;;;;;12.83;11.73;;;10.10;99.90;;;;;;5016129;28;20227;-90
2023/04/08 04:19:40;;;;;;;14.83;13.57;;;10.10;99.90;;;;;;5016562;28;20239;-88
2023/04/08 04:22:05;;;;;;;13.47;12.30;;;10.10;99.90;;;;;;5015445;28;20200;-90
2023/04/08 04:24:31;;;;;;;14.03;12.83;;;9.90;99.90;;;;;;4995837;28;20285;-91
2023/04/08 04:26:57;;;;;;;13.77;12.53;;;9.80;99.90;;;;;;5013925;28;20746;-89
2023/04/08 04:29:22;;;;;;;14.20;13.00;;;9.80;99.90;;;;;;5013619;28;20194;-92
2023/04/08 04:31:48;;;;;;;14.17;12.97;;;9.80;99.90;;;;;;5020136;28;20297;-89
2023/04/08 04:34:14;;;;;;;14.20;13.00;;;9.70;99.90;;;;;;5015185;28;20188;-90
2023/04/08 04:36:39;;;;;;;14.17;12.97;;;9.80;99.90;;;;;;4998072;28;20224;-89
2023/04/08 04:39:05;;;;;;;15.23;13.70;;;9.90;99.90;;;;;;5016365;28;20326;-91
2023/04/08 04:41:31;;;;;;;14.80;13.33;;;9.90;99.90;;;;;;5016607;28;20694;-89
2023/04/08 04:43:57;;;;;;;14.40;13.10;;;9.90;99.90;;;;;;5016651;28;20174;-89
2023/04/08 04:46:22;;;;;;;14.40;13.13;;;10.00;99.90;;;;;;5016477;28;20229;-90
2023/04/08 04:48:48;;;;;;;14.43;13.13;;;10.00;99.90;;;;;;5016735;28;20173;-88
2023/04/08 04:51:15;;;;;;;14.33;13.07;;;9.90;99.90;;;;;;5017579;28;20179;-90
2023/04/08 04:53:40;;;;;;;14.77;13.47;;;9.90;99.90;;;;;;5016942;28;20236;-89
2023/04/08 04:56:06;;;;;;;13.83;12.60;;;9.90;99.90;;;;;;5018634;28;20204;-90
2023/04/08 04:58:32;;;;;;;13.93;12.63;;;9.90;99.90;;;;;;5020435;28;20184;-89
2023/04/08 05:00:57;;;;;;;14.00;12.80;;;9.90;99.90;;;;;;5017184;28;20184;-89
2023/04/08 05:03:23;;;;;;;14.93;13.53;;;9.80;99.90;;;;;;4998395;28;20206;-90
2023/04/08 05:05:53;;;;;;;18.40;13.17;;;9.70;99.90;;;;;;5015847;28;20214;-90
2023/04/08 05:08:20;;;;;;;15.20;13.80;;;9.70;99.90;;;;;;5016181;28;20184;-89
2023/04/08 05:10:45;;;;;;;13.43;12.23;;;9.80;99.90;;;;;;5016901;28;20256;-90
2023/04/08 05:13:11;;;;;;;16.30;14.80;;;9.80;99.90;;;;;;5015565;28;20201;-90
2023/04/08 05:15:36;;;;;;;15.33;13.93;;;9.80;99.90;;;;;;5014835;28;20215;-91
2023/04/08 05:18:05;;;;;;;15.53;14.20;;;9.80;99.90;;;;;;5017762;28;20183;-89
2023/04/08 05:20:31;;;;;;;15.20;13.80;;;9.80;99.90;;;;;;5004735;28;20179;-92
2023/04/08 05:22:57;;;;;;;17.03;15.43;;;9.90;99.90;;;;;;5013522;28;20199;-89
2023/04/08 05:25:22;;;;;;;16.03;14.43;;;10.00;99.90;;;;;;5013481;28;20182;-89
2023/04/08 05:27:48;;;;;;;16.13;14.43;;;10.00;99.90;;;;;;5014878;28;20687;-91
2023/04/08 05:30:13;;;;;;;15.20;13.80;;;10.00;99.90;;;;;;5027921;28;20400;-90
2023/04/08 05:32:39;;;;;;;15.73;14.33;;;9.90;99.90;;;;;;5031105;28;20178;-92
2023/04/08 05:35:05;;;;;;;14.80;13.40;;;10.00;99.90;;;;;;5036700;28;20565;-87
2023/04/08 05:37:31;;;;;;;17.27;15.63;;;10.10;99.90;;;;;;5030726;28;20220;-90
2023/04/08 05:39:56;;;;;;;16.23;14.83;;;10.10;99.90;;;;;;5019067;28;20206;-92
2023/04/08 05:42:22;;;;;;;16.50;14.90;;;10.10;99.90;;;;;;5028857;28;20218;-89
2023/04/08 05:44:48;;;;;;;15.53;14.23;;;10.10;99.90;;;;;;5032878;28;20191;-93
2023/04/08 05:47:13;;;;;;;16.30;14.80;;;10.30;99.90;;;;;;5022425;28;20212;-89
2023/04/08 05:49:39;;;;;;;16.80;15.13;;;10.30;99.90;;;;;;5034624;28;20218;-89
2023/04/08 05:52:05;;;;;;;17.87;16.27;;;10.20;99.90;;;;;;5027758;28;20185;-90
2023/04/08 05:54:31;;;;;;;15.60;14.20;;;10.20;99.90;;;;;;5029518;28;20173;-90
2023/04/08 05:56:57;;;;;;;15.43;14.03;;;10.30;99.90;;;;;;5026896;28;20271;-90
2023/04/08 05:59:23;;;;;;;18.07;16.43;;;10.40;99.90;;;;;;5029566;28;20206;-89
2023/04/08 06:01:49;;;;;;;15.97;14.57;;;10.40;99.90;;;;;;5029861;28;20745;-89
2023/04/08 06:04:16;;;;;;;19.50;17.60;;;10.50;99.90;;;;;;5032934;28;20206;-91
2023/04/08 06:06:42;;;;;;;17.70;16.10;;;10.50;99.90;;;;;;5027862;28;20200;-91
2023/04/08 06:09:09;;;;;;;16.50;15.10;;;10.50;99.90;;;;;;5026694;28;20204;-92
2023/04/08 06:11:34;;;;;;;17.07;15.43;;;10.40;99.90;;;;;;5029233;28;20191;-91
2023/04/08 06:14:00;;;;;;;18.37;16.47;;;10.40;99.90;;;;;;5028990;28;20377;-91
2023/04/08 06:16:26;;;;;;;17.73;16.07;;;10.30;99.90;;;;;;5005402;28;20212;-89
2023/04/08 06:18:52;;;;;;;17.13;15.63;;;10.40;99.90;;;;;;5035043;28;20180;-91
2023/04/08 06:21:17;;;;;;;19.47;17.57;;;10.50;99.90;;;;;;5033996;28;20730;-90
2023/04/08 06:23:43;;;;;;;16.33;14.83;;;10.50;99.90;;;;;;5019646;28;20201;-90
2023/04/08 06:26:09;;;;;;;17.67;15.97;;;10.60;99.90;;;;;;5011825;28;20212;-89
2023/04/08 06:28:34;;;;;;;16.93;15.27;;;10.70;99.90;;;;;;5021966;28;20211;-89
2023/04/08 06:31:00;;;;;;;18.23;16.43;;;10.50;99.90;;;;;;5021647;28;20172;-90
2023/04/08 06:33:26;;;;;;;20.03;18.17;;;10.50;99.90;;;;;;5041325;28;20207;-91
2023/04/08 06:36:00;;;;;;;19.43;17.63;;;10.50;99.90;;;;;;5029117;28;20223;-90
2023/04/08 06:38:25;;;;;;;17.77;16.17;;;10.50;99.90;;;;;;5021374;28;20659;-89
2023/04/08 06:40:51;;;;;;;18.00;16.20;;;10.50;99.90;;;;;;5021240;28;20243;-90
2023/04/08 06:43:17;;;;;;;17.47;15.93;;;10.50;99.90;;;;;;5020487;28;20213;-91
2023/04/08 06:45:42;;;;;;;18.77;16.83;;;10.50;99.90;;;;;;5020725;28;20278;-92
2023/04/08 06:48:08;;;;;;;18.00;16.20;;;10.50;99.90;;;;;;5025707;28;20264;-90
2023/04/08 06:50:34;;;;;;;18.70;16.83;;;10.50;99.90;;;;;;5030753;28;20183;-90
2023/04/08 06:52:59;;;;;;;16.87;15.37;;;10.50;99.90;;;;;;5029434;28;20195;-88
2023/04/08 06:55:25;;;;;;;17.90;16.20;;;10.50;99.90;;;;;;5027779;28;20277;-89
2023/04/08 06:57:51;;;;;;;19.43;17.73;;;10.60;99.90;;;;;;5027337;28;20321;-91
2023/04/08 07:00:17;;;;;;;16.73;15.23;;;10.60;99.90;;;;;;5029095;28;20224;-89
2023/04/08 07:02:43;;;;;;;17.67;16.00;;;10.70;99.90;;;;;;5019019;28;20267;-89
2023/04/08 07:05:09;;;;;;;15.93;14.43;;;10.80;99.90;;;;;;5017317;28;20186;-91
2023/04/08 07:07:35;;;;;;;13.17;11.80;;;10.90;99.90;;;;;;5019605;28;20208;-89
2023/04/08 07:10:00;;;;;;;14.23;12.77;;;11.10;93.70;;;;;;5025893;28;20195;-89
2023/04/08 07:12:26;;;;;;;13.03;11.73;;;11.10;92.20;;;;;;5012274;28;20309;-90
2023/04/08 07:14:52;;;;;;;11.80;10.70;;;11.20;90.90;;;;;;5019429;28;20567;-89
2023/04/08 07:17:18;;;;;;;12.47;11.13;;;11.20;91.00;;;;;;5017740;28;20289;-90
2023/04/08 07:19:44;;;;;;;12.63;10.90;;;11.20;90.90;;;;;;4999245;28;20192;-90
2023/04/08 07:22:09;;;;;;;12.40;11.20;;;11.30;90.70;;;;;;5028641;28;20297;-91
2023/04/08 07:24:35;;;;;;;12.07;10.97;;;11.20;89.60;;;;;;5021865;28;20187;-90
2023/04/08 07:27:01;;;;;;;11.27;10.17;;;11.20;90.50;;;;;;5016941;28;20616;-89
2023/04/08 07:29:26;;;;;;;12.27;11.00;;;11.30;88.80;;;;;;5020490;28;20192;-91
2023/04/08 07:31:52;;;;;;;12.10;11.00;;;11.40;88.70;;;;;;5025613;28;20178;-90
2023/04/08 07:34:18;;;;;;;13.63;12.33;;;11.60;88.60;;;;;;5018311;28;20245;-88
2023/04/08 07:36:44;;;;;;;12.13;10.83;;;11.50;90.80;;;;;;5026465;28;20239;-90
2023/04/08 07:39:10;;;;;;;12.03;10.83;;;11.60;90.50;;;;;;5036265;28;20507;-90
2023/04/08 07:41:35;;;;;;;13.47;12.27;;;11.60;88.20;;;;;;5018147;28;20196;-87
2023/04/08 07:44:01;;;;;;;11.33;10.33;;;11.70;87.90;;;;;;5024806;28;20189;-90
2023/04/08 07:46:27;;;;;;;10.43;9.53;;;11.80;87.50;;;;;;5016363;28;20202;-89
2023/04/08 07:48:52;;;;;;;12.43;10.87;;;11.90;86.30;;;;;;5017667;28;20252;-90
2023/04/08 07:51:18;;;;;;;12.80;11.50;;;12.10;82.90;;;;;;5001209;28;20173;-89
2023/04/08 07:53:44;;;;;;;12.17;11.10;;;12.20;81.20;;;;;;5026627;28;20196;-87
2023/04/08 07:56:11;;;;;;;13.20;11.27;;;12.10;81.20;;;;;;5016200;28;20592;-89
2023/04/08 07:58:37;;;;;;;12.80;11.50;;;11.80;80.10;;;;;;5000572;28;20177;-89
2023/04/08 08:01:02;;;;;;;12.80;10.83;;;11.60;83.00;;;;;;5017165;28;20198;-88
2023/04/08 08:03:28;;;;;;;11.97;10.73;;;11.40;83.00;;;;;;4997739;28;20202;-90
2023/04/08 08:05:54;;;;;;;13.03;11.73;;;11.40;83.50;;;;;;5015667;28;20221;-89
2023/04/08 08:08:19;;;;;;;12.30;11.10;;;11.50;82.90;;;;;;5015886;28;20199;-89
2023/04/08 08:10:45;;;;;;;11.17;10.07;;;11.40;83.20;;;;;;5015827;28;20196;-89
2023/04/08 08:13:13;;;;;;;13.20;12.10;;;11.40;81.40;;;;;;5002268;28;20207;-90
2023/04/08 08:15:39;;;;;;;11.13;10.13;;;11.30;82.80;;;;;;5012471;28;20212;-90
2023/04/08 08:18:05;;;;;;;12.90;11.67;;;11.30;83.40;;;;;;5015303;28;20200;-90
2023/04/08 08:20:30;;;;;;;11.90;10.80;;;11.40;82.90;;;;;;5015601;28;20761;-89
2023/04/08 08:22:56;;;;;;;11.97;10.87;;;11.40;83.80;;;;;;5014833;28;20203;-95
2023/04/08 08:25:22;;;;;;;12.03;10.90;;;11.50;81.40;;;;;;5010494;28;20868;-88
2023/04/08 08:27:47;;;;;;;12.20;11.00;;;11.70;81.90;;;;;;5017044;28;20195;-91
2023/04/08 08:30:13;;;;;;;12.07;10.87;;;11.80;79.00;;;;;;5015691;28;20912;-90
2023/04/08 08:32:39;;;;;;;13.63;12.43;;;11.90;78.90;;;;;;5013581;28;20204;-91
2023/04/08 08:35:05;;;;;;;13.23;12.03;;;11.90;78.60;;;;;;5013043;28;20193;-90
2023/04/08 08:37:31;;;;;;;12.20;11.10;;;11.90;79.40;;;;;;5015597;28;20638;-89
2023/04/08 08:39:56;;;;;;;12.13;10.93;;;11.90;79.40;;;;;;5015469;28;20403;-88
2023/04/08 08:42:23;;;;;;;14.73;12.80;;;12.00;79.20;;;;;;5016631;28;20208;-91
2023/04/08 08:44:50;;;;;;;15.50;13.63;;;12.00;79.50;;;;;;5015473;28;20553;-88
2023/04/08 08:47:16;;;;;;;13.93;12.70;;;12.10;77.80;;;;;;5018663;28;20720;-90
2023/04/08 08:49:42;;;;;;;14.80;13.50;;;12.20;78.70;;;;;;5016743;28;20189;-90
2023/04/08 08:52:08;;;;;;;14.87;13.57;;;12.40;76.30;;;;;;5022802;28;20802;-90
2023/04/08 08:54:34;;;;;;;13.67;12.40;;;12.50;75.00;;;;;;4997568;28;20227;-89
2023/04/08 08:57:00;;;;;;;13.37;12.17;;;12.40;76.40;;;;;;4997781;28;20221;-89
2023/04/08 08:59:27;;;;;;;14.17;12.80;;;12.30;75.30;;;;;;5017201;28;20228;-89
2023/04/08 09:01:52;;;;;;;14.57;13.07;;;12.20;74.50;;;;;;5014824;28;20249;-88
2023/04/08 09:04:21;;;;;;;15.07;13.57;;;12.30;74.00;;;;;;5014746;28;20366;-88
2023/04/08 09:06:49;;;;;;;18.07;15.77;;;12.50;77.10;;;;;;5019249;28;20213;-92
2023/04/08 09:09:15;;;;;;;15.47;13.97;;;12.70;74.50;;;;;;5021595;28;20285;-91
2023/04/08 09:11:46;;;;;;;20.50;18.67;;;12.60;72.60;;;;;;5019214;28;20283;-89
2023/04/08 09:14:24;;;;;;;13.13;11.83;;;12.40;73.80;;;;;;5015731;28;20658;-90
2023/04/08 09:16:52;;;;;;;14.90;13.43;;;12.30;75.20;;;;;;5022499;28;20219;-90
2023/04/08 09:19:18;;;;;;;12.43;11.43;;;12.40;75.20;;;;;;5021879;28;20258;-90
2023/04/08 09:21:43;;;;;;;12.37;11.27;;;12.50;73.90;;;;;;5021198;28;20295;-90
2023/04/08 09:24:27;;;;;;;13.30;12.03;;;12.70;73.60;;;;;;5018829;28;20896;-91
2023/04/08 09:26:53;;;;;;;12.97;11.77;;;12.90;72.20;;;;;;5020013;28;20220;-89
2023/04/08 09:29:23;;;;;;;12.93;11.73;;;13.10;69.80;;;;;;5023317;28;20268;-86
2023/04/08 09:31:53;;;;;;;13.70;12.50;;;13.50;67.80;;;;;;5020012;28;20215;-89
2023/04/08 09:34:20;;;;;;;12.93;11.77;;;13.80;66.80;;;;;;5020250;28;20224;-90
2023/04/08 09:36:47;;;;;;;13.17;12.03;;;14.20;64.90;;;;;;5004703;28;20229;-88
2023/04/08 09:39:14;;;;;;;11.93;10.83;;;14.20;65.60;;;;;;5004290;28;20240;-87
2023/04/08 09:41:41;;;;;;;12.63;11.40;;;14.30;63.00;;;;;;5020271;28;20220;-89
2023/04/08 09:44:08;;;;;;;14.33;12.27;;;14.20;66.70;;;;;;5019913;28;20196;-84
2023/04/08 09:46:49;;;;;;;59.23;17.77;;;14.20;65.40;;;;;;5022391;28;20198;-86
2023/04/08 09:49:30;;;;;;;25.10;14.43;;;13.80;64.30;;;;;;5024398;28;20970;-86
2023/04/08 09:52:14;;;;;;;15.93;11.97;;;13.80;64.40;;;;;;5000526;28;20212;-86
2023/04/08 09:54:54;;;;;;;13.20;11.90;;;14.10;63.10;;;;;;5019376;28;20187;-85
2023/04/08 09:57:35;;;;;;;13.23;11.83;;;14.00;63.00;;;;;;5019607;28;21470;-88
2023/04/08 10:00:24;;;;;;;46.07;16.33;;;14.00;62.00;;;;;;5028090;28;20197;-88
2023/04/08 10:03:31;;;;;;;27.40;13.07;;;13.80;61.80;;;;;;5020025;28;20198;-86
2023/04/08 10:06:00;;;;;;;15.67;11.63;;;13.80;62.60;;;;;;5014113;28;20665;-86
2023/04/08 10:08:26;;;;;;;12.77;11.20;;;14.00;63.40;;;;;;5020607;28;20230;-84
2023/04/08 10:10:53;;;;;;;12.53;11.33;;;14.20;64.40;;;;;;5020895;28;20188;-89
2023/04/08 10:13:21;;;;;;;12.00;10.53;;;14.30;63.70;;;;;;5017482;28;20195;-86
2023/04/08 10:15:47;;;;;;;14.23;11.43;;;14.60;62.00;;;;;;5022352;28;20243;-91
2023/04/08 10:18:13;;;;;;;12.47;11.33;;;14.70;61.40;;;;;;5023614;28;20178;-88
2023/04/08 10:20:39;;;;;;;12.13;11.10;;;14.80;59.70;;;;;;5020103;28;20214;-88
2023/04/08 10:23:06;;;;;;;12.03;11.03;;;14.80;58.90;;;;;;5019672;28;20213;-89
2023/04/08 10:25:43;;;;;;;13.37;12.17;;;14.90;59.30;;;;;;5017723;28;20177;-88
2023/04/08 10:28:12;;;;;;;12.70;11.60;;;14.70;56.20;;;;;;5019166;28;20192;-89
2023/04/08 10:30:41;;;;;;;12.10;11.20;;;14.40;57.00;;;;;;5018825;28;20241;-88
2023/04/08 10:33:28;;;;;;;12.77;11.67;;;14.30;58.60;;;;;;5015899;28;20193;-90
2023/04/08 10:36:05;;;;;;;12.07;11.00;;;14.40;55.00;;;;;;5014632;28;20299;-88
2023/04/08 10:38:31;;;;;;;12.73;11.63;;;15.00;55.70;;;;;;5019403;28;20182;-88
2023/04/08 10:40:57;;;;;;;13.50;12.03;;;15.30;54.90;;;;;;5000457;28;20207;-88
2023/04/08 10:43:23;;;;;;;13.87;12.67;;;15.50;51.60;;;;;;5018518;28;20233;-86
2023/04/08 10:45:51;;;;;;;13.43;12.30;;;15.50;49.60;;;;;;5019117;28;20547;-89
2023/04/08 10:48:21;;;;;;;12.43;11.37;;;15.40;50.60;;;;;;5016750;28;20187;-89
2023/04/08 10:50:58;;;;;;;13.20;12.10;;;15.40;50.00;;;;;;5018335;28;20214;-87
2023/04/08 10:53:34;;;;;;;13.37;12.17;;;15.40;49.50;;;;;;4997459;28;20582;-88
2023/04/08 10:56:12;;;;;;;13.00;11.90;;;15.30;49.10;;;;;;5020588;28;20217;-90
2023/04/08 10:58:58;;;;;;;12.43;11.33;;;15.20;48.30;;;;;;5019010;28;20172;-87
2023/04/08 11:01:26;;;;;;;13.07;11.97;;;15.20;48.60;;;;;;4998315;28;20221;-87
2023/04/08 11:03:52;;;;;;;12.53;11.47;;;15.50;48.10;;;;;;5012879;28;20189;-90
2023/04/08 11:06:18;;;;;;;13.53;12.33;;;15.70;44.80;;;;;;5016389;28;20215;-88
2023/04/08 11:08:44;;;;;;;13.90;12.70;;;15.70;42.30;;;;;;5017473;28;20191;-91
2023/04/08 11:11:10;;;;;;;14.00;12.80;;;15.50;43.40;;;;;;5016929;28;20247;-90
2023/04/08 11:13:39;;;;;;;13.37;12.27;;;15.50;44.00;;;;;;5016556;28;20193;-88
2023/04/08 11:16:07;;;;;;;13.07;11.93;;;15.30;43.90;;;;;;5020739;28;20224;-88
2023/04/08 11:18:42;;;;;;;13.13;11.93;;;15.30;44.50;;;;;;5015158;28;20192;-89
2023/04/08 11:21:08;;;;;;;14.30;13.00;;;14.80;43.40;;;;;;5013368;28;20877;-87
2023/04/08 11:23:35;;;;;;;13.00;11.90;;;14.80;44.30;;;;;;5012125;28;20272;-89
2023/04/08 11:26:01;;;;;;;12.60;11.50;;;14.70;46.80;;;;;;4999459;28;20205;-88
2023/04/08 11:28:27;;;;;;;12.03;10.93;;;14.80;48.00;;;;;;5018219;28;20195;-87
2023/04/08 11:30:54;;;;;;;12.33;11.33;;;14.80;48.20;;;;;;5016021;28;20193;-89
2023/04/08 11:33:20;;;;;;;12.33;11.33;;;14.90;49.30;;;;;;5014392;28;20189;-88
2023/04/08 11:35:50;;;;;;;18.00;12.07;;;14.70;50.90;;;;;;5016614;28;20212;-88
2023/04/08 11:38:20;;;;;;;13.20;12.10;;;14.70;52.50;;;;;;5015449;28;20194;-86
2023/04/08 11:40:54;;;;;;;13.27;12.07;;;14.70;50.30;;;;;;5017442;28;20184;-85
2023/04/08 11:43:20;;;;;;;12.93;11.77;;;14.70;48.50;;;;;;5015846;28;20296;-88
2023/04/08 11:45:46;;;;;;;13.53;12.33;;;14.60;46.50;;;;;;5016007;28;20884;-88
2023/04/08 11:48:13;;;;;;;12.60;11.50;;;14.50;46.40;;;;;;5015539;28;20197;-88
2023/04/08 11:50:40;;;;;;;12.40;11.40;;;14.50;47.60;;;;;;5013807;28;20189;-86
2023/04/08 11:53:38;;;;;;;11.97;10.97;;;14.40;46.90;;;;;;5015058;28;20274;-91
2023/04/08 11:56:17;;;;;;;12.97;11.70;;;14.30;46.90;;;;;;5001234;28;20221;-88
2023/04/08 11:58:43;;;;;;;12.63;11.53;;;14.20;45.90;;;;;;5014191;28;20286;-88
2023/04/08 12:01:09;;;;;;;12.23;11.23;;;14.20;46.90;;;;;;5015630;28;21751;-86
2023/04/08 12:03:35;;;;;;;13.83;11.83;;;14.20;46.10;;;;;;5015397;28;20227;-86
2023/04/08 12:06:00;;;;;;;13.67;12.40;;;14.30;46.70;;;;;;5015340;28;20215;-88
2023/04/08 12:08:27;;;;;;;13.03;11.83;;;14.20;47.80;;;;;;5015105;28;20212;-89
2023/04/08 12:10:52;;;;;;;14.77;13.37;;;14.30;48.40;;;;;;5014354;28;20221;-89
2023/04/08 12:13:18;;;;;;;14.17;12.90;;;14.40;48.50;;;;;;5013686;28;20675;-88
2023/04/08 12:15:44;;;;;;;13.03;11.93;;;14.40;46.60;;;;;;5013739;28;20216;-86
2023/04/08 12:18:09;;;;;;;14.47;13.27;;;14.40;47.20;;;;;;5015823;28;20193;-89
2023/04/08 12:20:35;;;;;;;13.97;12.00;;;14.50;48.40;;;;;;4996799;28;20223;-88
2023/04/08 12:23:01;;;;;;;13.97;12.57;;;14.50;49.00;;;;;;5012799;28;20209;-88
2023/04/08 12:25:26;;;;;;;13.60;12.07;;;14.60;46.90;;;;;;5011526;28;21372;-87
2023/04/08 12:27:52;;;;;;;12.67;11.67;;;14.80;48.30;;;;;;5015588;28;20191;-89
2023/04/08 12:30:18;;;;;;;13.00;11.90;;;14.90;45.00;;;;;;5010370;28;20190;-88
2023/04/08 12:32:46;;;;;;;12.77;11.77;;;15.00;46.20;;;;;;4995795;28;21475;-88
2023/04/08 12:35:12;;;;;;;13.30;12.03;;;15.00;46.40;;;;;;5014868;28;20200;-89